CheckWX is a tool to help pilots better visualize weather data.  It is not intended as a substitute for an official pre-flight weather briefing.

17:20:18 UTC

KDIK TAF
Dickinson - Theodore Roosevelt Regional Airport
Dickinson, North Dakota, USA
KDIK 201422Z 2014/2112 03011KT 4SM -SN BR OVC003 TEMPO 2014/2017 3SM BR SCT003 OVC005 FM201700 01015G20KT 5SM BR BKN005 OVC008 FM201900 36016G23KT P6SM BKN009 OVC012 FM210000 35015G21KT P6SM OVC012 FM210300 33011KT P6SM BKN014 OVC022 FM210600 32008KT P6SM SCT020

Nov-20@
14:00 UTC

Nov-20 @ 14:00 UTC

Nov-20@
17:00 UTC

Nov-20 @ 17:00 UTC

KDIK 201422Z 2014/2112 03011KT 4SM -SN BR OVC003

Expired

Wind
  • 030° at 11 KTS
Conditions
Light Snow, Mist
Cloud Levels
  • Overcast at 300' AGL

Nov-20@
14:00 UTC

Nov-20 @ 14:00 UTC

Nov-20@
17:00 UTC

Nov-20 @ 17:00 UTC

TEMPO 2014/2017 3SM BR SCT003 OVC005

Expired

Conditions
Mist
Cloud Levels
  • Scattered at 300' AGL
  • Overcast at 500' AGL

Nov-20@
17:00 UTC

Nov-20 @ 17:00 UTC

Nov-20@
19:00 UTC

Nov-20 @ 19:00 UTC

FM201700 01015G20KT 5SM BR BKN005 OVC008

From

From Standard forecast or significant change

Wind
  • 010° at 15 KTS
  • {Gusting to 20 KTS
Conditions
Mist
Cloud Levels
  • Broken at 500' AGL
  • Overcast at 800' AGL

Nov-20@
19:00 UTC

Nov-20 @ 19:00 UTC

Nov-21@
00:00 UTC

Nov-21 @ 00:00 UTC

FM201900 36016G23KT P6SM BKN009 OVC012

From

From Standard forecast or significant change

Wind
  • 360° at 16 KTS
  • {Gusting to 23 KTS
Cloud Levels
  • Broken at 900' AGL
  • Overcast at 1,200' AGL

Nov-21@
00:00 UTC

Nov-21 @ 00:00 UTC

Nov-21@
03:00 UTC

Nov-21 @ 03:00 UTC

FM210000 35015G21KT P6SM OVC012

From

From Standard forecast or significant change

Wind
  • 350° at 15 KTS
  • {Gusting to 21 KTS
Cloud Levels
  • Overcast at 1,200' AGL

Nov-21@
03:00 UTC

Nov-21 @ 03:00 UTC

Nov-21@
06:00 UTC

Nov-21 @ 06:00 UTC

FM210300 33011KT P6SM BKN014 OVC022

From

From Standard forecast or significant change

Wind
  • 330° at 11 KTS
Cloud Levels
  • Broken at 1,400' AGL
  • Overcast at 2,200' AGL

Nov-21@
06:00 UTC

Nov-21 @ 06:00 UTC

Nov-21@
12:00 UTC

Nov-21 @ 12:00 UTC

FM210600 32008KT P6SM SCT020

From

From Standard forecast or significant change

Wind
  • 320° at 8 KTS
Cloud Levels
  • Scattered at 2,000' AGL